Terminal Aerodrome Forecast
Issued by NWS

Home | Current Version | Previous Version | Text Only | Print | Product List | Glossary Off
Versions: 1 2 3 4 5 6 7 8 9 10 11 12 13 14 15 16 17 18 19 20 21 22 23 24 25 26 27 28 29 30 31 32

000
FTUS43 KGRB 250400 AAB
TAFRHI
TAF AMD
KRHI 250433Z 2505/2524 15007KT 5SM BR OVC007
      TEMPO 2507/2510 2SM TSRA OVC010CB
     FM251400 22005KT P6SM BKN030
     FM251800 24009G17KT P6SM SCT035 BKN080=

USA.gov is the U.S. government's official web portal to all federal, state and local government web resources and services.